sensor_id;sensor_type;location;lat;lon;timestamp;P1;durP1;ratioP1;P2;durP2;ratioP2
15689;SDS011;7945;48.816;11.506;2023-05-23T00:00:00;7.82;;;6.05;;
15689;SDS011;7945;48.816;11.506;2023-05-23T00:02:26;10.45;;;5.93;;
15689;SDS011;7945;48.816;11.506;2023-05-23T00:04:54;13.30;;;6.22;;
15689;SDS011;7945;48.816;11.506;2023-05-23T00:07:23;9.05;;;6.00;;
15689;SDS011;7945;48.816;11.506;2023-05-23T00:09:51;12.25;;;6.55;;
15689;SDS011;7945;48.816;11.506;2023-05-23T00:12:17;8.65;;;5.82;;
15689;SDS011;7945;48.816;11.506;2023-05-23T00:14:44;15.38;;;6.10;;
15689;SDS011;7945;48.816;11.506;2023-05-23T00:17:11;11.63;;;6.72;;
15689;SDS011;7945;48.816;11.506;2023-05-23T00:19:38;9.75;;;5.90;;
15689;SDS011;7945;48.816;11.506;2023-05-23T00:22:05;9.27;;;6.57;;
15689;SDS011;7945;48.816;11.506;2023-05-23T00:24:33;6.65;;;5.38;;
15689;SDS011;7945;48.816;11.506;2023-05-23T00:27:00;8.95;;;6.70;;
15689;SDS011;7945;48.816;11.506;2023-05-23T00:29:26;8.70;;;6.32;;
15689;SDS011;7945;48.816;11.506;2023-05-23T00:31:53;13.48;;;6.60;;
15689;SDS011;7945;48.816;11.506;2023-05-23T00:34:20;10.32;;;6.60;;
15689;SDS011;7945;48.816;11.506;2023-05-23T00:36:46;9.73;;;6.70;;
15689;SDS011;7945;48.816;11.506;2023-05-23T00:39:14;8.77;;;6.30;;
15689;SDS011;7945;48.816;11.506;2023-05-23T00:41:45;11.95;;;6.53;;
15689;SDS011;7945;48.816;11.506;2023-05-23T00:44:12;7.82;;;5.80;;
15689;SDS011;7945;48.816;11.506;2023-05-23T00:46:39;6.82;;;5.90;;
15689;SDS011;7945;48.816;11.506;2023-05-23T00:49:10;9.88;;;6.10;;
15689;SDS011;7945;48.816;11.506;2023-05-23T00:51:37;8.85;;;6.80;;
15689;SDS011;7945;48.816;11.506;2023-05-23T00:54:06;8.32;;;6.15;;
15689;SDS011;7945;48.816;11.506;2023-05-23T00:56:33;9.38;;;6.55;;
15689;SDS011;7945;48.816;11.506;2023-05-23T00:59:01;11.20;;;6.35;;
15689;SDS011;7945;48.816;11.506;2023-05-23T01:01:28;7.68;;;5.70;;
15689;SDS011;7945;48.816;11.506;2023-05-23T01:03:56;10.10;;;6.47;;
15689;SDS011;7945;48.816;11.506;2023-05-23T01:06:23;9.85;;;6.88;;
15689;SDS011;7945;48.816;11.506;2023-05-23T01:08:50;11.30;;;6.28;;
15689;SDS011;7945;48.816;11.506;2023-05-23T01:11:18;10.55;;;6.85;;
15689;SDS011;7945;48.816;11.506;2023-05-23T01:13:54;9.43;;;6.53;;
15689;SDS011;7945;48.816;11.506;2023-05-23T01:16:29;6.78;;;5.40;;
15689;SDS011;7945;48.816;11.506;2023-05-23T01:19:04;8.13;;;6.00;;
15689;SDS011;7945;48.816;11.506;2023-05-23T01:21:43;7.88;;;6.47;;
15689;SDS011;7945;48.816;11.506;2023-05-23T01:27:06;9.27;;;6.50;;
15689;SDS011;7945;48.816;11.506;2023-05-23T01:29:42;11.52;;;6.13;;
15689;SDS011;7945;48.816;11.506;2023-05-23T01:32:11;8.75;;;6.55;;
15689;SDS011;7945;48.816;11.506;2023-05-23T01:34:39;11.82;;;7.15;;
15689;SDS011;7945;48.816;11.506;2023-05-23T01:37:07;7.50;;;5.97;;
15689;SDS011;7945;48.816;11.506;2023-05-23T01:39:35;9.30;;;6.47;;
15689;SDS011;7945;48.816;11.506;2023-05-23T01:42:02;9.13;;;6.68;;
15689;SDS011;7945;48.816;11.506;2023-05-23T01:44:30;12.25;;;6.78;;
15689;SDS011;7945;48.816;11.506;2023-05-23T01:47:00;10.38;;;6.28;;
15689;SDS011;7945;48.816;11.506;2023-05-23T01:49:28;11.48;;;6.35;;
15689;SDS011;7945;48.816;11.506;2023-05-23T01:51:57;8.85;;;6.47;;
15689;SDS011;7945;48.816;11.506;2023-05-23T01:54:24;10.10;;;7.25;;
15689;SDS011;7945;48.816;11.506;2023-05-23T01:56:53;9.73;;;6.57;;
15689;SDS011;7945;48.816;11.506;2023-05-23T01:59:21;8.05;;;6.55;;
15689;SDS011;7945;48.816;11.506;2023-05-23T02:01:48;9.77;;;6.07;;
15689;SDS011;7945;48.816;11.506;2023-05-23T02:04:16;10.43;;;6.45;;
15689;SDS011;7945;48.816;11.506;2023-05-23T02:06:43;9.77;;;6.50;;
15689;SDS011;7945;48.816;11.506;2023-05-23T02:09:10;7.88;;;5.88;;
15689;SDS011;7945;48.816;11.506;2023-05-23T02:11:37;9.63;;;6.60;;
15689;SDS011;7945;48.816;11.506;2023-05-23T02:14:04;8.57;;;6.45;;
15689;SDS011;7945;48.816;11.506;2023-05-23T02:16:31;9.20;;;6.70;;
15689;SDS011;7945;48.816;11.506;2023-05-23T02:19:00;10.98;;;6.78;;
15689;SDS011;7945;48.816;11.506;2023-05-23T02:21:28;9.38;;;6.95;;
15689;SDS011;7945;48.816;11.506;2023-05-23T02:23:56;8.85;;;6.30;;
15689;SDS011;7945;48.816;11.506;2023-05-23T02:26:23;13.75;;;6.97;;
15689;SDS011;7945;48.816;11.506;2023-05-23T02:28:51;11.40;;;6.80;;
15689;SDS011;7945;48.816;11.506;2023-05-23T02:31:18;9.43;;;6.55;;
15689;SDS011;7945;48.816;11.506;2023-05-23T02:33:45;9.60;;;6.38;;
15689;SDS011;7945;48.816;11.506;2023-05-23T02:36:12;10.00;;;6.75;;
15689;SDS011;7945;48.816;11.506;2023-05-23T02:38:40;9.20;;;6.53;;
15689;SDS011;7945;48.816;11.506;2023-05-23T02:41:07;10.02;;;7.00;;
15689;SDS011;7945;48.816;11.506;2023-05-23T02:43:34;6.90;;;5.70;;
15689;SDS011;7945;48.816;11.506;2023-05-23T02:46:00;8.80;;;6.70;;
15689;SDS011;7945;48.816;11.506;2023-05-23T02:48:27;11.23;;;6.80;;
15689;SDS011;7945;48.816;11.506;2023-05-23T02:50:54;10.05;;;6.88;;
15689;SDS011;7945;48.816;11.506;2023-05-23T02:53:21;9.70;;;6.63;;
15689;SDS011;7945;48.816;11.506;2023-05-23T02:55:49;12.68;;;7.18;;
15689;SDS011;7945;48.816;11.506;2023-05-23T02:58:16;8.30;;;5.72;;
15689;SDS011;7945;48.816;11.506;2023-05-23T03:00:43;12.35;;;7.93;;
15689;SDS011;7945;48.816;11.506;2023-05-23T03:03:09;10.90;;;6.97;;
15689;SDS011;7945;48.816;11.506;2023-05-23T03:05:36;10.30;;;6.35;;
15689;SDS011;7945;48.816;11.506;2023-05-23T03:08:03;8.20;;;6.20;;
15689;SDS011;7945;48.816;11.506;2023-05-23T03:10:30;9.55;;;6.35;;
15689;SDS011;7945;48.816;11.506;2023-05-23T03:12:58;10.82;;;6.60;;
15689;SDS011;7945;48.816;11.506;2023-05-23T03:15:25;7.80;;;6.75;;
15689;SDS011;7945;48.816;11.506;2023-05-23T03:17:52;11.00;;;6.82;;
15689;SDS011;7945;48.816;11.506;2023-05-23T03:20:19;7.60;;;6.20;;
15689;SDS011;7945;48.816;11.506;2023-05-23T03:22:46;12.60;;;6.72;;
15689;SDS011;7945;48.816;11.506;2023-05-23T03:25:13;10.15;;;7.18;;
15689;SDS011;7945;48.816;11.506;2023-05-23T03:27:40;10.43;;;7.80;;
15689;SDS011;7945;48.816;11.506;2023-05-23T03:30:09;10.63;;;6.80;;
15689;SDS011;7945;48.816;11.506;2023-05-23T03:32:36;9.43;;;6.55;;
15689;SDS011;7945;48.816;11.506;2023-05-23T03:35:03;10.40;;;6.90;;
15689;SDS011;7945;48.816;11.506;2023-05-23T03:37:30;11.18;;;7.20;;
15689;SDS011;7945;48.816;11.506;2023-05-23T03:39:57;9.98;;;6.70;;
15689;SDS011;7945;48.816;11.506;2023-05-23T03:42:23;13.00;;;7.53;;
15689;SDS011;7945;48.816;11.506;2023-05-23T03:44:50;9.77;;;7.40;;
15689;SDS011;7945;48.816;11.506;2023-05-23T03:47:18;9.57;;;6.80;;
15689;SDS011;7945;48.816;11.506;2023-05-23T03:49:45;8.43;;;6.65;;
15689;SDS011;7945;48.816;11.506;2023-05-23T03:52:12;9.95;;;6.75;;
15689;SDS011;7945;48.816;11.506;2023-05-23T03:54:39;11.20;;;8.07;;
15689;SDS011;7945;48.816;11.506;2023-05-23T03:57:06;9.18;;;6.75;;
15689;SDS011;7945;48.816;11.506;2023-05-23T03:59:32;10.75;;;7.47;;
15689;SDS011;7945;48.816;11.506;2023-05-23T04:01:59;10.73;;;6.88;;
15689;SDS011;7945;48.816;11.506;2023-05-23T04:04:27;12.10;;;7.45;;
15689;SDS011;7945;48.816;11.506;2023-05-23T04:06:55;10.48;;;6.95;;
15689;SDS011;7945;48.816;11.506;2023-05-23T04:09:22;11.32;;;8.32;;
15689;SDS011;7945;48.816;11.506;2023-05-23T04:11:49;10.10;;;7.35;;
15689;SDS011;7945;48.816;11.506;2023-05-23T04:14:16;11.98;;;7.43;;
15689;SDS011;7945;48.816;11.506;2023-05-23T04:16:44;9.93;;;6.93;;
15689;SDS011;7945;48.816;11.506;2023-05-23T04:19:12;12.60;;;7.13;;
15689;SDS011;7945;48.816;11.506;2023-05-23T04:21:40;9.95;;;6.95;;
15689;SDS011;7945;48.816;11.506;2023-05-23T04:24:06;11.10;;;7.47;;
15689;SDS011;7945;48.816;11.506;2023-05-23T04:26:33;9.13;;;6.82;;
15689;SDS011;7945;48.816;11.506;2023-05-23T04:29:01;10.73;;;7.13;;
15689;SDS011;7945;48.816;11.506;2023-05-23T04:31:28;14.88;;;7.97;;
15689;SDS011;7945;48.816;11.506;2023-05-23T04:33:55;15.25;;;7.32;;
15689;SDS011;7945;48.816;11.506;2023-05-23T04:36:21;11.43;;;7.38;;
15689;SDS011;7945;48.816;11.506;2023-05-23T04:38:51;12.05;;;7.43;;
15689;SDS011;7945;48.816;11.506;2023-05-23T04:41:17;12.13;;;7.72;;
15689;SDS011;7945;48.816;11.506;2023-05-23T04:43:47;13.00;;;7.63;;
15689;SDS011;7945;48.816;11.506;2023-05-23T04:46:18;8.02;;;6.43;;
15689;SDS011;7945;48.816;11.506;2023-05-23T04:48:50;11.00;;;7.93;;
15689;SDS011;7945;48.816;11.506;2023-05-23T04:51:17;10.75;;;7.43;;
15689;SDS011;7945;48.816;11.506;2023-05-23T04:53:45;12.00;;;8.43;;
15689;SDS011;7945;48.816;11.506;2023-05-23T04:56:13;10.48;;;7.20;;
15689;SDS011;7945;48.816;11.506;2023-05-23T04:58:41;14.25;;;7.35;;
15689;SDS011;7945;48.816;11.506;2023-05-23T05:01:09;11.35;;;6.72;;
15689;SDS011;7945;48.816;11.506;2023-05-23T05:03:36;11.60;;;7.30;;
15689;SDS011;7945;48.816;11.506;2023-05-23T05:06:03;9.57;;;7.55;;
15689;SDS011;7945;48.816;11.506;2023-05-23T05:08:30;14.65;;;7.50;;
15689;SDS011;7945;48.816;11.506;2023-05-23T05:10:57;11.25;;;7.38;;
15689;SDS011;7945;48.816;11.506;2023-05-23T05:13:25;10.75;;;7.07;;
15689;SDS011;7945;48.816;11.506;2023-05-23T05:15:52;12.05;;;7.40;;
15689;SDS011;7945;48.816;11.506;2023-05-23T05:18:19;10.70;;;7.20;;
15689;SDS011;7945;48.816;11.506;2023-05-23T05:20:45;9.65;;;6.28;;
15689;SDS011;7945;48.816;11.506;2023-05-23T05:23:12;9.20;;;6.93;;
15689;SDS011;7945;48.816;11.506;2023-05-23T05:25:39;9.93;;;6.88;;
15689;SDS011;7945;48.816;11.506;2023-05-23T05:28:05;10.57;;;6.40;;
15689;SDS011;7945;48.816;11.506;2023-05-23T05:30:34;10.73;;;7.05;;
15689;SDS011;7945;48.816;11.506;2023-05-23T05:33:01;15.23;;;7.13;;
15689;SDS011;7945;48.816;11.506;2023-05-23T05:35:29;10.52;;;6.20;;
15689;SDS011;7945;48.816;11.506;2023-05-23T05:37:56;8.93;;;5.97;;
15689;SDS011;7945;48.816;11.506;2023-05-23T05:40:23;9.23;;;6.22;;
15689;SDS011;7945;48.816;11.506;2023-05-23T05:42:50;9.20;;;6.18;;
15689;SDS011;7945;48.816;11.506;2023-05-23T05:45:16;12.00;;;6.55;;
15689;SDS011;7945;48.816;11.506;2023-05-23T05:47:45;7.40;;;6.22;;
15689;SDS011;7945;48.816;11.506;2023-05-23T05:50:12;9.10;;;6.53;;
15689;SDS011;7945;48.816;11.506;2023-05-23T05:52:39;7.85;;;5.85;;
15689;SDS011;7945;48.816;11.506;2023-05-23T05:55:06;12.18;;;6.70;;
15689;SDS011;7945;48.816;11.506;2023-05-23T05:57:35;10.18;;;6.20;;
15689;SDS011;7945;48.816;11.506;2023-05-23T06:00:03;10.93;;;5.97;;
15689;SDS011;7945;48.816;11.506;2023-05-23T06:02:36;8.02;;;5.55;;
15689;SDS011;7945;48.816;11.506;2023-05-23T06:05:04;9.15;;;5.63;;
15689;SDS011;7945;48.816;11.506;2023-05-23T06:07:32;8.40;;;5.68;;
15689;SDS011;7945;48.816;11.506;2023-05-23T06:09:59;7.63;;;5.78;;
15689;SDS011;7945;48.816;11.506;2023-05-23T06:15:22;6.65;;;4.72;;
15689;SDS011;7945;48.816;11.506;2023-05-23T06:17:48;7.97;;;4.57;;
15689;SDS011;7945;48.816;11.506;2023-05-23T06:20:16;7.13;;;5.35;;
15689;SDS011;7945;48.816;11.506;2023-05-23T06:22:42;7.80;;;5.30;;
15689;SDS011;7945;48.816;11.506;2023-05-23T06:25:09;7.65;;;5.20;;
15689;SDS011;7945;48.816;11.506;2023-05-23T06:27:36;7.35;;;4.75;;
15689;SDS011;7945;48.816;11.506;2023-05-23T06:30:03;8.02;;;4.93;;
15689;SDS011;7945;48.816;11.506;2023-05-23T06:32:32;7.82;;;5.10;;
15689;SDS011;7945;48.816;11.506;2023-05-23T06:34:59;8.73;;;5.20;;
15689;SDS011;7945;48.816;11.506;2023-05-23T06:37:26;7.78;;;5.00;;
15689;SDS011;7945;48.816;11.506;2023-05-23T06:39:53;10.13;;;5.50;;
15689;SDS011;7945;48.816;11.506;2023-05-23T06:42:19;8.10;;;5.43;;
15689;SDS011;7945;48.816;11.506;2023-05-23T06:44:46;8.05;;;5.07;;
15689;SDS011;7945;48.816;11.506;2023-05-23T06:47:13;7.38;;;5.65;;
15689;SDS011;7945;48.816;11.506;2023-05-23T06:49:41;6.80;;;5.13;;
15689;SDS011;7945;48.816;11.506;2023-05-23T06:52:08;8.07;;;5.63;;
15689;SDS011;7945;48.816;11.506;2023-05-23T06:54:34;10.25;;;5.38;;
15689;SDS011;7945;48.816;11.506;2023-05-23T06:57:02;6.88;;;5.20;;
15689;SDS011;7945;48.816;11.506;2023-05-23T06:59:29;9.00;;;6.00;;
15689;SDS011;7945;48.816;11.506;2023-05-23T07:01:56;7.18;;;5.53;;
15689;SDS011;7945;48.816;11.506;2023-05-23T07:04:22;8.43;;;5.68;;
15689;SDS011;7945;48.816;11.506;2023-05-23T07:06:51;7.35;;;4.53;;
15689;SDS011;7945;48.816;11.506;2023-05-23T07:09:18;6.55;;;5.05;;
15689;SDS011;7945;48.816;11.506;2023-05-23T07:11:45;5.78;;;4.45;;
15689;SDS011;7945;48.816;11.506;2023-05-23T07:14:12;9.35;;;5.57;;
15689;SDS011;7945;48.816;11.506;2023-05-23T07:16:39;7.22;;;5.07;;
15689;SDS011;7945;48.816;11.506;2023-05-23T07:19:05;11.60;;;5.78;;
15689;SDS011;7945;48.816;11.506;2023-05-23T07:21:32;7.57;;;4.95;;
15689;SDS011;7945;48.816;11.506;2023-05-23T07:24:01;7.40;;;4.47;;
15689;SDS011;7945;48.816;11.506;2023-05-23T07:26:28;7.20;;;4.72;;
15689;SDS011;7945;48.816;11.506;2023-05-23T07:28:54;6.28;;;4.78;;
15689;SDS011;7945;48.816;11.506;2023-05-23T07:31:21;9.18;;;4.68;;
15689;SDS011;7945;48.816;11.506;2023-05-23T07:33:48;7.55;;;4.82;;
15689;SDS011;7945;48.816;11.506;2023-05-23T07:36:15;8.50;;;5.30;;
15689;SDS011;7945;48.816;11.506;2023-05-23T07:38:42;7.30;;;4.50;;
15689;SDS011;7945;48.816;11.506;2023-05-23T07:41:10;7.05;;;5.18;;
15689;SDS011;7945;48.816;11.506;2023-05-23T07:43:37;7.32;;;4.90;;
15689;SDS011;7945;48.816;11.506;2023-05-23T07:46:03;6.57;;;5.40;;
15689;SDS011;7945;48.816;11.506;2023-05-23T07:48:30;7.50;;;5.03;;
15689;SDS011;7945;48.816;11.506;2023-05-23T07:50:57;6.88;;;5.13;;
15689;SDS011;7945;48.816;11.506;2023-05-23T07:53:23;7.63;;;5.22;;
15689;SDS011;7945;48.816;11.506;2023-05-23T07:55:51;9.32;;;5.35;;
15689;SDS011;7945;48.816;11.506;2023-05-23T07:58:19;8.25;;;4.90;;
15689;SDS011;7945;48.816;11.506;2023-05-23T08:00:47;7.55;;;5.70;;
15689;SDS011;7945;48.816;11.506;2023-05-23T08:03:14;7.55;;;4.85;;
15689;SDS011;7945;48.816;11.506;2023-05-23T08:05:43;8.70;;;5.40;;
15689;SDS011;7945;48.816;11.506;2023-05-23T08:08:09;8.68;;;5.40;;
15689;SDS011;7945;48.816;11.506;2023-05-23T08:10:36;8.82;;;5.70;;
15689;SDS011;7945;48.816;11.506;2023-05-23T08:13:04;9.02;;;5.93;;
15689;SDS011;7945;48.816;11.506;2023-05-23T08:15:32;9.60;;;5.20;;
15689;SDS011;7945;48.816;11.506;2023-05-23T08:17:59;7.07;;;5.15;;
15689;SDS011;7945;48.816;11.506;2023-05-23T08:20:25;10.45;;;5.22;;
15689;SDS011;7945;48.816;11.506;2023-05-23T08:22:56;10.45;;;5.50;;
15689;SDS011;7945;48.816;11.506;2023-05-23T08:25:23;7.55;;;4.88;;
15689;SDS011;7945;48.816;11.506;2023-05-23T08:27:54;7.97;;;5.07;;
15689;SDS011;7945;48.816;11.506;2023-05-23T08:30:21;8.68;;;5.63;;
15689;SDS011;7945;48.816;11.506;2023-05-23T08:32:50;9.00;;;5.57;;
15689;SDS011;7945;48.816;11.506;2023-05-23T08:35:18;9.27;;;5.50;;
15689;SDS011;7945;48.816;11.506;2023-05-23T08:37:44;8.82;;;5.78;;
15689;SDS011;7945;48.816;11.506;2023-05-23T08:40:12;7.20;;;5.20;;
15689;SDS011;7945;48.816;11.506;2023-05-23T08:42:43;9.32;;;5.00;;
15689;SDS011;7945;48.816;11.506;2023-05-23T08:45:10;7.82;;;5.22;;
15689;SDS011;7945;48.816;11.506;2023-05-23T08:47:37;7.35;;;4.78;;
15689;SDS011;7945;48.816;11.506;2023-05-23T08:50:09;6.88;;;5.00;;
15689;SDS011;7945;48.816;11.506;2023-05-23T08:52:39;6.85;;;4.65;;
15689;SDS011;7945;48.816;11.506;2023-05-23T08:55:09;5.47;;;4.60;;
15689;SDS011;7945;48.816;11.506;2023-05-23T08:57:36;7.68;;;5.15;;
15689;SDS011;7945;48.816;11.506;2023-05-23T09:00:08;7.25;;;4.65;;
15689;SDS011;7945;48.816;11.506;2023-05-23T09:02:38;6.50;;;4.57;;
15689;SDS011;7945;48.816;11.506;2023-05-23T09:05:06;9.95;;;4.82;;
15689;SDS011;7945;48.816;11.506;2023-05-23T09:07:35;6.28;;;3.97;;
15689;SDS011;7945;48.816;11.506;2023-05-23T09:10:02;6.35;;;4.50;;
15689;SDS011;7945;48.816;11.506;2023-05-23T09:12:31;7.22;;;4.40;;
15689;SDS011;7945;48.816;11.506;2023-05-23T09:15:00;8.10;;;4.35;;
15689;SDS011;7945;48.816;11.506;2023-05-23T09:17:27;5.93;;;3.95;;
15689;SDS011;7945;48.816;11.506;2023-05-23T09:19:56;6.85;;;4.57;;
15689;SDS011;7945;48.816;11.506;2023-05-23T09:22:23;6.55;;;4.72;;
15689;SDS011;7945;48.816;11.506;2023-05-23T09:24:52;8.27;;;4.47;;
15689;SDS011;7945;48.816;11.506;2023-05-23T09:27:20;6.50;;;4.88;;
15689;SDS011;7945;48.816;11.506;2023-05-23T09:29:47;9.75;;;4.82;;
15689;SDS011;7945;48.816;11.506;2023-05-23T09:32:15;7.50;;;4.63;;
15689;SDS011;7945;48.816;11.506;2023-05-23T09:34:53;7.72;;;4.70;;
15689;SDS011;7945;48.816;11.506;2023-05-23T09:37:21;8.68;;;4.45;;
15689;SDS011;7945;48.816;11.506;2023-05-23T09:39:48;7.10;;;4.22;;
15689;SDS011;7945;48.816;11.506;2023-05-23T09:42:21;6.32;;;4.80;;
15689;SDS011;7945;48.816;11.506;2023-05-23T09:44:48;9.93;;;5.45;;
15689;SDS011;7945;48.816;11.506;2023-05-23T09:47:15;6.45;;;4.90;;
15689;SDS011;7945;48.816;11.506;2023-05-23T09:49:43;5.55;;;4.40;;
15689;SDS011;7945;48.816;11.506;2023-05-23T09:52:11;7.80;;;4.30;;
15689;SDS011;7945;48.816;11.506;2023-05-23T09:54:38;6.78;;;4.90;;
15689;SDS011;7945;48.816;11.506;2023-05-23T09:57:05;8.18;;;4.97;;
15689;SDS011;7945;48.816;11.506;2023-05-23T09:59:38;4.82;;;4.05;;
15689;SDS011;7945;48.816;11.506;2023-05-23T10:02:06;6.32;;;4.47;;
15689;SDS011;7945;48.816;11.506;2023-05-23T10:04:36;8.63;;;5.35;;
15689;SDS011;7945;48.816;11.506;2023-05-23T10:07:06;11.68;;;5.32;;
15689;SDS011;7945;48.816;11.506;2023-05-23T10:09:39;5.22;;;4.63;;
15689;SDS011;7945;48.816;11.506;2023-05-23T10:15:09;6.82;;;4.57;;
15689;SDS011;7945;48.816;11.506;2023-05-23T10:17:40;7.55;;;5.05;;
15689;SDS011;7945;48.816;11.506;2023-05-23T10:20:29;6.80;;;5.57;;
15689;SDS011;7945;48.816;11.506;2023-05-23T10:22:58;8.18;;;4.55;;
15689;SDS011;7945;48.816;11.506;2023-05-23T10:25:25;6.55;;;4.85;;
15689;SDS011;7945;48.816;11.506;2023-05-23T10:27:53;7.45;;;5.45;;
15689;SDS011;7945;48.816;11.506;2023-05-23T10:30:25;9.32;;;5.18;;
15689;SDS011;7945;48.816;11.506;2023-05-23T10:32:52;7.60;;;5.00;;
15689;SDS011;7945;48.816;11.506;2023-05-23T10:35:21;9.38;;;4.75;;
15689;SDS011;7945;48.816;11.506;2023-05-23T10:37:55;8.45;;;4.80;;
15689;SDS011;7945;48.816;11.506;2023-05-23T10:40:30;6.70;;;5.20;;
15689;SDS011;7945;48.816;11.506;2023-05-23T10:43:09;8.00;;;5.57;;
15689;SDS011;7945;48.816;11.506;2023-05-23T10:45:45;6.63;;;5.57;;
15689;SDS011;7945;48.816;11.506;2023-05-23T10:48:21;8.80;;;5.15;;
15689;SDS011;7945;48.816;11.506;2023-05-23T10:51:04;8.02;;;5.10;;
15689;SDS011;7945;48.816;11.506;2023-05-23T10:53:33;6.82;;;4.72;;
15689;SDS011;7945;48.816;11.506;2023-05-23T10:56:03;5.47;;;4.38;;
15689;SDS011;7945;48.816;11.506;2023-05-23T10:58:31;9.85;;;4.72;;
15689;SDS011;7945;48.816;11.506;2023-05-23T11:01:00;9.27;;;4.50;;
15689;SDS011;7945;48.816;11.506;2023-05-23T11:03:31;6.68;;;4.75;;
15689;SDS011;7945;48.816;11.506;2023-05-23T11:05:59;9.73;;;5.05;;
15689;SDS011;7945;48.816;11.506;2023-05-23T11:08:26;7.55;;;4.20;;
15689;SDS011;7945;48.816;11.506;2023-05-23T11:10:54;8.38;;;4.60;;
15689;SDS011;7945;48.816;11.506;2023-05-23T11:13:24;6.28;;;4.50;;
15689;SDS011;7945;48.816;11.506;2023-05-23T11:15:51;8.02;;;5.15;;
15689;SDS011;7945;48.816;11.506;2023-05-23T11:18:20;6.70;;;5.05;;
15689;SDS011;7945;48.816;11.506;2023-05-23T11:20:49;6.32;;;4.45;;
15689;SDS011;7945;48.816;11.506;2023-05-23T11:23:18;6.57;;;4.43;;
15689;SDS011;7945;48.816;11.506;2023-05-23T11:25:47;11.63;;;5.28;;
15689;SDS011;7945;48.816;11.506;2023-05-23T11:28:14;7.72;;;4.85;;
15689;SDS011;7945;48.816;11.506;2023-05-23T11:30:41;4.95;;;4.25;;
15689;SDS011;7945;48.816;11.506;2023-05-23T11:33:09;6.57;;;4.80;;
15689;SDS011;7945;48.816;11.506;2023-05-23T11:35:40;7.22;;;4.53;;
15689;SDS011;7945;48.816;11.506;2023-05-23T11:38:08;6.22;;;4.13;;
15689;SDS011;7945;48.816;11.506;2023-05-23T11:40:36;7.88;;;4.65;;
15689;SDS011;7945;48.816;11.506;2023-05-23T11:43:04;6.30;;;4.40;;
15689;SDS011;7945;48.816;11.506;2023-05-23T11:45:33;8.35;;;4.55;;
15689;SDS011;7945;48.816;11.506;2023-05-23T11:48:04;7.10;;;4.30;;
15689;SDS011;7945;48.816;11.506;2023-05-23T11:50:31;6.53;;;4.55;;
15689;SDS011;7945;48.816;11.506;2023-05-23T11:53:00;6.75;;;4.72;;
15689;SDS011;7945;48.816;11.506;2023-05-23T11:55:27;6.75;;;4.63;;
15689;SDS011;7945;48.816;11.506;2023-05-23T11:57:54;9.20;;;4.82;;
15689;SDS011;7945;48.816;11.506;2023-05-23T12:00:22;8.88;;;5.43;;
15689;SDS011;7945;48.816;11.506;2023-05-23T12:02:49;8.80;;;5.05;;
15689;SDS011;7945;48.816;11.506;2023-05-23T12:05:16;11.25;;;4.65;;
15689;SDS011;7945;48.816;11.506;2023-05-23T12:07:43;6.60;;;4.25;;
15689;SDS011;7945;48.816;11.506;2023-05-23T12:10:12;10.20;;;4.15;;
15689;SDS011;7945;48.816;11.506;2023-05-23T12:12:40;9.65;;;4.45;;
15689;SDS011;7945;48.816;11.506;2023-05-23T12:15:07;9.98;;;4.88;;
15689;SDS011;7945;48.816;11.506;2023-05-23T12:17:35;6.88;;;4.70;;
15689;SDS011;7945;48.816;11.506;2023-05-23T12:20:03;7.15;;;4.82;;
15689;SDS011;7945;48.816;11.506;2023-05-23T12:22:31;6.13;;;3.88;;
15689;SDS011;7945;48.816;11.506;2023-05-23T12:24:58;9.63;;;4.80;;
15689;SDS011;7945;48.816;11.506;2023-05-23T12:27:27;6.68;;;4.38;;
15689;SDS011;7945;48.816;11.506;2023-05-23T12:30:04;6.78;;;4.55;;
15689;SDS011;7945;48.816;11.506;2023-05-23T12:32:33;10.30;;;5.13;;
15689;SDS011;7945;48.816;11.506;2023-05-23T12:35:00;8.38;;;4.72;;
15689;SDS011;7945;48.816;11.506;2023-05-23T12:37:29;5.07;;;4.03;;
15689;SDS011;7945;48.816;11.506;2023-05-23T12:39:55;7.53;;;4.10;;
15689;SDS011;7945;48.816;11.506;2023-05-23T12:42:22;6.22;;;4.20;;
15689;SDS011;7945;48.816;11.506;2023-05-23T12:44:53;6.60;;;4.82;;
15689;SDS011;7945;48.816;11.506;2023-05-23T12:47:20;8.95;;;4.18;;
15689;SDS011;7945;48.816;11.506;2023-05-23T12:49:47;5.00;;;3.83;;
15689;SDS011;7945;48.816;11.506;2023-05-23T12:52:14;4.75;;;3.92;;
15689;SDS011;7945;48.816;11.506;2023-05-23T12:54:40;4.72;;;3.70;;
15689;SDS011;7945;48.816;11.506;2023-05-23T12:57:07;4.55;;;3.28;;
15689;SDS011;7945;48.816;11.506;2023-05-23T12:59:34;6.40;;;4.75;;
15689;SDS011;7945;48.816;11.506;2023-05-23T13:02:03;3.90;;;3.50;;
15689;SDS011;7945;48.816;11.506;2023-05-23T13:04:30;7.43;;;4.13;;
15689;SDS011;7945;48.816;11.506;2023-05-23T13:06:56;5.60;;;3.47;;
15689;SDS011;7945;48.816;11.506;2023-05-23T13:09:23;4.72;;;3.63;;
15689;SDS011;7945;48.816;11.506;2023-05-23T13:11:50;5.32;;;3.78;;
15689;SDS011;7945;48.816;11.506;2023-05-23T13:14:17;7.13;;;2.97;;
15689;SDS011;7945;48.816;11.506;2023-05-23T13:16:44;4.90;;;3.70;;
15689;SDS011;7945;48.816;11.506;2023-05-23T13:19:12;3.88;;;3.15;;
15689;SDS011;7945;48.816;11.506;2023-05-23T13:21:38;5.10;;;3.40;;
15689;SDS011;7945;48.816;11.506;2023-05-23T13:24:05;6.05;;;3.17;;
15689;SDS011;7945;48.816;11.506;2023-05-23T13:26:33;4.45;;;2.95;;
15689;SDS011;7945;48.816;11.506;2023-05-23T13:29:00;6.50;;;3.20;;
15689;SDS011;7945;48.816;11.506;2023-05-23T13:31:27;7.28;;;3.10;;
15689;SDS011;7945;48.816;11.506;2023-05-23T13:33:53;4.05;;;2.70;;
15689;SDS011;7945;48.816;11.506;2023-05-23T13:36:22;3.88;;;2.40;;
15689;SDS011;7945;48.816;11.506;2023-05-23T13:38:49;3.67;;;2.95;;
15689;SDS011;7945;48.816;11.506;2023-05-23T13:41:16;5.50;;;3.25;;
15689;SDS011;7945;48.816;11.506;2023-05-23T13:43:43;4.82;;;2.65;;
15689;SDS011;7945;48.816;11.506;2023-05-23T13:46:10;2.80;;;2.17;;
15689;SDS011;7945;48.816;11.506;2023-05-23T13:48:37;3.83;;;2.72;;
15689;SDS011;7945;48.816;11.506;2023-05-23T13:51:04;4.00;;;2.17;;
15689;SDS011;7945;48.816;11.506;2023-05-23T13:53:33;2.67;;;2.47;;
15689;SDS011;7945;48.816;11.506;2023-05-23T13:56:00;3.28;;;2.40;;
15689;SDS011;7945;48.816;11.506;2023-05-23T13:58:27;2.45;;;2.22;;
15689;SDS011;7945;48.816;11.506;2023-05-23T14:00:54;3.50;;;2.35;;
15689;SDS011;7945;48.816;11.506;2023-05-23T14:03:21;2.80;;;1.98;;
15689;SDS011;7945;48.816;11.506;2023-05-23T14:05:48;2.35;;;1.80;;
15689;SDS011;7945;48.816;11.506;2023-05-23T14:08:15;3.38;;;2.05;;
15689;SDS011;7945;48.816;11.506;2023-05-23T14:10:43;5.60;;;2.42;;
15689;SDS011;7945;48.816;11.506;2023-05-23T14:13:10;2.55;;;2.10;;
15689;SDS011;7945;48.816;11.506;2023-05-23T14:15:37;3.33;;;2.15;;
15689;SDS011;7945;48.816;11.506;2023-05-23T14:18:05;3.17;;;2.00;;
15689;SDS011;7945;48.816;11.506;2023-05-23T14:20:32;2.95;;;2.03;;
15689;SDS011;7945;48.816;11.506;2023-05-23T14:23:00;2.38;;;2.10;;
15689;SDS011;7945;48.816;11.506;2023-05-23T14:25:26;4.97;;;1.98;;
15689;SDS011;7945;48.816;11.506;2023-05-23T14:27:55;3.47;;;2.08;;
15689;SDS011;7945;48.816;11.506;2023-05-23T14:30:22;1.92;;;1.70;;
15689;SDS011;7945;48.816;11.506;2023-05-23T14:32:49;2.17;;;1.90;;
15689;SDS011;7945;48.816;11.506;2023-05-23T14:35:16;2.10;;;1.90;;
15689;SDS011;7945;48.816;11.506;2023-05-23T14:37:43;2.85;;;1.80;;
15689;SDS011;7945;48.816;11.506;2023-05-23T14:40:11;2.47;;;1.63;;
15689;SDS011;7945;48.816;11.506;2023-05-23T14:42:38;1.80;;;1.70;;
15689;SDS011;7945;48.816;11.506;2023-05-23T14:45:07;2.63;;;1.83;;
15689;SDS011;7945;48.816;11.506;2023-05-23T14:47:34;2.33;;;1.92;;
15689;SDS011;7945;48.816;11.506;2023-05-23T14:50:01;1.73;;;1.40;;
15689;SDS011;7945;48.816;11.506;2023-05-23T14:52:29;2.10;;;1.65;;
15689;SDS011;7945;48.816;11.506;2023-05-23T14:54:56;2.45;;;1.40;;
15689;SDS011;7945;48.816;11.506;2023-05-23T14:57:23;2.05;;;1.55;;